createdAt,value
2019-01-09T00:01:59.495Z,4.4
2019-01-09T00:07:01.742Z,4.4
2019-01-09T00:12:04.159Z,4.3
2019-01-09T00:17:06.585Z,4.3
2019-01-09T00:22:08.594Z,4.3
2019-01-09T00:27:11.037Z,4.2
2019-01-09T00:32:13.301Z,4.3
2019-01-09T00:37:15.494Z,4.3
2019-01-09T00:42:17.819Z,4.3
2019-01-09T00:47:20.168Z,4.3
2019-01-09T00:52:22.626Z,4.3
2019-01-09T00:57:24.713Z,4.3
2019-01-09T01:02:27.041Z,4.2
2019-01-09T01:07:29.408Z,4.2
2019-01-09T01:12:31.602Z,4.1
2019-01-09T01:17:33.933Z,4.1
2019-01-09T01:22:36.257Z,4.1
2019-01-09T01:27:38.571Z,4
2019-01-09T01:32:40.808Z,4.1
2019-01-09T01:37:43.071Z,4.1
2019-01-09T01:42:45.378Z,4
2019-01-09T01:47:47.892Z,4
2019-01-09T01:52:49.990Z,4
2019-01-09T01:57:52.166Z,3.9
2019-01-09T02:02:54.551Z,3.9
2019-01-09T02:12:59.329Z,4
2019-01-09T02:18:01.559Z,4.1
2019-01-09T02:23:03.685Z,4.1
2019-01-09T02:28:06.013Z,4.1
2019-01-09T02:33:08.314Z,4.2
2019-01-09T02:38:10.571Z,4.3
2019-01-09T02:43:13.011Z,4.3
2019-01-09T02:48:15.234Z,4.3
2019-01-09T02:53:17.479Z,4.4
2019-01-09T02:58:19.799Z,4.4
2019-01-09T03:08:24.327Z,4.4
2019-01-09T03:13:26.710Z,4.4
2019-01-09T03:18:29.051Z,4.4
2019-01-09T03:23:31.161Z,4.3
2019-01-09T03:28:33.491Z,4.3
2019-01-09T03:33:35.877Z,4.2
2019-01-09T03:38:38.133Z,4.2
2019-01-09T03:43:40.428Z,4.1
2019-01-09T03:48:42.785Z,4
2019-01-09T03:53:45.031Z,3.9
2019-01-09T03:58:47.258Z,3.9
2019-01-09T04:03:49.632Z,3.8
2019-01-09T04:08:51.881Z,3.8
2019-01-09T04:13:56.182Z,3.8
2019-01-09T04:18:56.556Z,4
2019-01-09T04:23:58.789Z,4.1
2019-01-09T04:29:01.145Z,4
2019-01-09T04:34:03.360Z,3.9
2019-01-09T04:39:05.727Z,3.9
2019-01-09T04:44:07.893Z,3.6
2019-01-09T04:49:10.252Z,3.3
2019-01-09T04:54:12.442Z,3.1
2019-01-09T04:59:14.815Z,3
2019-01-09T05:04:17.102Z,2.9
2019-01-09T05:09:19.418Z,2.9
2019-01-09T05:14:21.795Z,3
2019-01-09T05:19:24.104Z,3.2
2019-01-09T05:24:26.244Z,3.3
2019-01-09T05:29:28.604Z,3.3
2019-01-09T05:34:30.811Z,3.2
2019-01-09T05:39:39.695Z,3.2
2019-01-09T05:44:37.014Z,3.4
2019-01-09T05:49:37.735Z,3.3
2019-01-09T05:54:41.574Z,3.3
2019-01-09T05:59:42.430Z,3.2
2019-01-09T06:04:44.605Z,3.2
2019-01-09T06:09:47.006Z,3.1
2019-01-09T06:14:49.172Z,3
2019-01-09T06:19:51.496Z,3
2019-01-09T06:24:53.811Z,3
2019-01-09T06:29:56.068Z,2.9
2019-01-09T06:34:58.463Z,2.9
2019-01-09T06:40:00.746Z,2.9
2019-01-09T06:45:03.052Z,2.8
2019-01-09T06:50:07.313Z,2.9
2019-01-09T06:55:07.691Z,3
2019-01-09T07:00:09.956Z,3.1
2019-01-09T07:05:12.145Z,3.2
2019-01-09T07:10:14.488Z,3.4
2019-01-09T07:15:16.710Z,3.4
2019-01-09T07:20:18.993Z,3.4
2019-01-09T07:25:21.259Z,3.4
2019-01-09T07:30:23.656Z,3.3
2019-01-09T07:35:25.911Z,3.2
2019-01-09T07:40:28.239Z,3.1
2019-01-09T07:45:30.530Z,3
2019-01-09T07:50:32.813Z,3
2019-01-09T07:55:35.043Z,3.1
2019-01-09T08:00:37.377Z,3.2
2019-01-09T08:05:39.829Z,3.3
2019-01-09T08:10:41.918Z,3.3
2019-01-09T08:15:44.207Z,3.5
2019-01-09T08:20:46.666Z,3.6
2019-01-09T08:25:48.860Z,3.4
2019-01-09T08:30:51.067Z,3.3
2019-01-09T08:35:53.481Z,3.2
2019-01-09T08:40:56.041Z,3.1
2019-01-09T08:45:57.979Z,3
2019-01-09T08:51:00.240Z,3
2019-01-09T08:56:02.580Z,3
2019-01-09T09:01:06.352Z,3.2
2019-01-09T09:06:07.202Z,3.2
2019-01-09T09:11:09.450Z,3.3
2019-01-09T09:16:11.809Z,3.5
2019-01-09T09:21:14.067Z,3.7
2019-01-09T09:26:16.355Z,3.7
2019-01-09T09:31:18.706Z,3.8
2019-01-09T09:36:21.099Z,3.8
2019-01-09T09:41:23.353Z,3.7
2019-01-09T09:46:25.536Z,3.7
2019-01-09T09:51:27.909Z,3.7
2019-01-09T09:56:30.102Z,3.8
2019-01-09T10:01:32.519Z,3.7
2019-01-09T10:06:34.681Z,3.8
2019-01-09T10:11:37.041Z,3.8
2019-01-09T10:16:39.322Z,3.8
2019-01-09T10:21:41.526Z,3.9
2019-01-09T10:26:43.919Z,4
2019-01-09T10:31:46.150Z,4.1
2019-01-09T10:36:48.497Z,4.2
2019-01-09T10:41:50.887Z,4.3
2019-01-09T10:46:53.058Z,4.4
2019-01-09T10:51:55.395Z,4.7
2019-01-09T10:56:57.669Z,4.8
2019-01-09T11:01:59.995Z,4.9
2019-01-09T11:07:02.191Z,4.9
2019-01-09T11:12:04.552Z,5
2019-01-09T11:17:06.909Z,5
2019-01-09T11:22:09.146Z,5.1
2019-01-09T11:27:11.466Z,5.1
2019-01-09T11:32:13.715Z,5.2
2019-01-09T11:37:16.062Z,5.4
2019-01-09T11:42:18.363Z,5.5
2019-01-09T11:47:20.688Z,5.7
2019-01-09T11:52:22.962Z,5.9
2019-01-09T11:57:25.209Z,6.2
2019-01-09T12:02:27.544Z,6.2
2019-01-09T12:07:29.756Z,6.1
2019-01-09T12:12:32.126Z,6.1
2019-01-09T12:17:34.417Z,6.1
2019-01-09T12:22:36.648Z,5.9
2019-01-09T12:27:38.890Z,5.8
2019-01-09T12:32:41.301Z,5.6
2019-01-09T12:37:43.552Z,5.7
2019-01-09T12:42:45.801Z,5.8
2019-01-09T12:47:48.143Z,5.7
2019-01-09T12:52:52.537Z,5.7
2019-01-09T12:57:52.762Z,5.8
2019-01-09T13:02:55.057Z,5.8
2019-01-09T13:07:57.240Z,5.8
2019-01-09T13:12:59.542Z,5.8
2019-01-09T13:18:01.947Z,5.9
2019-01-09T13:23:04.303Z,5.9
2019-01-09T13:28:06.484Z,6
2019-01-09T13:33:08.695Z,6
2019-01-09T13:38:11.288Z,6
2019-01-09T13:43:13.379Z,5.9
2019-01-09T13:48:15.757Z,6
2019-01-09T13:53:18.037Z,5.9
2019-01-09T13:58:20.267Z,6
2019-01-09T14:03:22.537Z,6
2019-01-09T14:08:24.818Z,6
2019-01-09T14:13:27.331Z,6.1
2019-01-09T14:18:29.401Z,6
2019-01-09T14:23:31.663Z,6
2019-01-09T14:28:34.228Z,6
2019-01-09T14:33:36.303Z,6.1
2019-01-09T14:38:38.595Z,6
2019-01-09T14:43:40.842Z,6
2019-01-09T14:48:43.201Z,6.1
2019-01-09T14:53:45.461Z,6.2
2019-01-09T14:58:47.811Z,6.1
2019-01-09T15:03:50.113Z,5.9
2019-01-09T15:08:52.416Z,5.8
2019-01-09T15:13:54.632Z,5.7
2019-01-09T15:18:56.856Z,5.6
2019-01-09T15:23:59.261Z,5.4
2019-01-09T15:29:01.582Z,5.3
2019-01-09T15:34:03.843Z,5.2
2019-01-09T15:39:06.118Z,5.1
2019-01-09T15:44:08.446Z,5
2019-01-09T15:49:10.819Z,4.9
2019-01-09T15:54:12.995Z,4.8
2019-01-09T15:59:15.363Z,4.7
2019-01-09T16:04:18.692Z,4.7
2019-01-09T16:09:19.797Z,4.5
2019-01-09T16:14:22.148Z,4.4
2019-01-09T16:19:24.642Z,4.4
2019-01-09T16:24:26.758Z,4.3
2019-01-09T16:29:29.126Z,4.2
2019-01-09T16:34:31.359Z,4
2019-01-09T16:39:36.076Z,4
2019-01-09T16:44:35.944Z,3.9
2019-01-09T16:49:38.235Z,3.8
2019-01-09T16:54:40.457Z,3.8
2019-01-09T16:59:42.813Z,3.8
2019-01-09T17:04:45.184Z,3.8
2019-01-09T17:09:47.577Z,3.8
2019-01-09T17:14:49.740Z,3.8
2019-01-09T17:19:52.026Z,3.7
2019-01-09T17:24:54.528Z,3.7
2019-01-09T17:29:56.483Z,3.7
2019-01-09T17:34:58.862Z,3.7
2019-01-09T17:40:01.373Z,3.6
2019-01-09T17:45:03.539Z,3.5
2019-01-09T17:50:05.892Z,3.4
2019-01-09T17:55:08.072Z,3.4
2019-01-09T18:00:10.284Z,3.4
2019-01-09T18:05:12.680Z,3.5
2019-01-09T18:10:14.942Z,3.4
2019-01-09T18:15:17.187Z,3.3
2019-01-09T18:20:20.931Z,3.3
2019-01-09T18:25:21.897Z,3.2
2019-01-09T18:30:24.096Z,3.2
2019-01-09T18:35:26.398Z,3.1
2019-01-09T18:40:28.666Z,3.1
2019-01-09T18:45:30.972Z,3.1
2019-01-09T18:50:33.240Z,3
2019-01-09T18:55:35.514Z,3
2019-01-09T19:00:37.900Z,3
2019-01-09T19:05:40.174Z,3
2019-01-09T19:10:42.473Z,2.9
2019-01-09T19:15:44.862Z,3
2019-01-09T19:20:46.978Z,3
2019-01-09T19:25:49.407Z,3
2019-01-09T19:30:53.690Z,3
2019-01-09T19:35:53.859Z,2.9
2019-01-09T19:40:56.117Z,2.9
2019-01-09T19:45:58.553Z,2.9
2019-01-09T19:51:00.954Z,2.9
2019-01-09T19:56:03.081Z,2.9
2019-01-09T20:01:05.486Z,2.9
2019-01-09T20:06:07.606Z,2.8
2019-01-09T20:11:09.926Z,2.8
2019-01-09T20:16:12.274Z,2.8
2019-01-09T20:21:14.572Z,2.8
2019-01-09T20:31:19.110Z,3.1
2019-01-09T20:36:21.338Z,3.1
2019-01-09T20:41:23.674Z,3.1
2019-01-09T20:46:26.052Z,3.1
2019-01-09T20:51:28.349Z,3
2019-01-09T20:56:31.928Z,3
2019-01-09T21:01:33.045Z,3
2019-01-09T21:06:35.372Z,2.9
2019-01-09T21:11:44.195Z,2.8
2019-01-09T21:16:39.752Z,2.9
2019-01-09T21:21:42.032Z,2.8
2019-01-09T21:26:44.354Z,2.7
2019-01-09T21:31:46.577Z,2.7
2019-01-09T21:36:49.017Z,2.6
2019-01-09T21:41:53.439Z,2.6
2019-01-09T21:46:53.481Z,2.7
2019-01-09T21:51:55.783Z,2.7
2019-01-09T21:56:58.128Z,2.6
2019-01-09T22:02:00.380Z,2.5
2019-01-09T22:07:02.684Z,2.5
2019-01-09T22:12:05.059Z,2.5
2019-01-09T22:17:07.275Z,2.4
2019-01-09T22:22:09.590Z,2.3
2019-01-09T22:27:12.131Z,2.3
2019-01-09T22:32:14.240Z,2.2
2019-01-09T22:37:16.515Z,2.2
2019-01-09T22:42:20.136Z,2.1
2019-01-09T22:47:21.078Z,2.1
2019-01-09T22:52:23.306Z,2.1
2019-01-09T22:57:25.738Z,2
2019-01-09T23:02:33.631Z,1.9
2019-01-09T23:07:31.636Z,1.9
2019-01-09T23:12:33.715Z,1.8
2019-01-09T23:17:36.147Z,1.7
2019-01-09T23:22:41.156Z,1.6
2019-01-09T23:27:39.306Z,1.5
2019-01-09T23:32:41.775Z,1.5
2019-01-09T23:37:44.079Z,1.4
2019-01-09T23:42:46.285Z,1.3
2019-01-09T23:47:48.824Z,1.2
2019-01-09T23:52:50.952Z,1.1
2019-01-09T23:57:53.201Z,1
